Time;durP1;ratioP1;P1;durP2;ratioP2;P2;SDS_P1;SDS_P2;PMS_P1;PMS_P2;Temp;Humidity;BMP_temperature;BMP_pressure;BME280_temperature;BME280_humidity;BME280_pressure;Samples;Min_cycle;Max_cycle;Signal;HPM_P1;HPM_P2
2023/09/09 00:01:42;;;;;;;11.95;6.85;;;27.40;75.40;;;;;;7385333;19;20015;-80
2023/09/09 00:04:12;;;;;;;10.23;6.87;;;27.50;75.40;;;;;;7384447;19;20015;-79
2023/09/09 00:06:43;;;;;;;12.88;6.47;;;27.40;75.50;;;;;;7385892;19;20232;-80
2023/09/09 00:09:14;;;;;;;13.48;6.85;;;27.40;75.70;;;;;;7387326;19;20150;-81
2023/09/09 00:11:43;;;;;;;17.10;6.90;;;27.40;75.60;;;;;;7384095;19;20245;-81
2023/09/09 00:14:15;;;;;;;11.85;6.53;;;27.40;75.60;;;;;;7411296;19;20014;-80
2023/09/09 00:16:45;;;;;;;11.48;6.13;;;27.30;75.80;;;;;;7394204;19;20329;-80
2023/09/09 00:19:14;;;;;;;19.38;6.40;;;27.30;75.90;;;;;;7385662;19;20030;-80
2023/09/09 00:21:45;;;;;;;10.43;6.22;;;27.20;75.80;;;;;;7383955;19;20208;-80
2023/09/09 00:24:14;;;;;;;12.27;5.93;;;27.20;76.10;;;;;;7384750;19;20386;-79
2023/09/09 00:26:43;;;;;;;11.63;6.85;;;27.10;76.20;;;;;;7385050;19;20406;-79
2023/09/09 00:29:14;;;;;;;10.18;5.90;;;27.10;76.40;;;;;;7405254;19;20011;-80
2023/09/09 00:31:45;;;;;;;12.50;6.30;;;27.10;76.50;;;;;;7383326;19;20371;-79
2023/09/09 00:34:14;;;;;;;19.08;6.75;;;27.00;76.80;;;;;;7382996;19;20030;-79
2023/09/09 00:36:43;;;;;;;13.00;6.18;;;27.00;76.90;;;;;;7383072;19;19998;-79
2023/09/09 00:39:14;;;;;;;12.60;6.10;;;26.90;76.90;;;;;;7382971;19;20023;-80
2023/09/09 00:41:43;;;;;;;;;;;26.90;76.80;;;;;;7383100;19;19998;-80
2023/09/09 00:44:18;;;;;;;12.52;6.28;;;26.90;76.70;;;;;;7403440;19;19955;-79
2023/09/09 00:46:46;;;;;;;14.32;7.00;;;26.90;76.90;;;;;;7382823;19;20373;-79
2023/09/09 00:49:17;;;;;;;12.68;6.57;;;26.90;76.90;;;;;;7382911;19;20011;-79
2023/09/09 00:51:48;;;;;;;12.00;6.88;;;26.90;76.90;;;;;;7380664;19;20010;-80
2023/09/09 00:54:18;;;;;;;13.80;6.72;;;26.90;77.00;;;;;;7382665;19;20007;-80
2023/09/09 00:56:46;;;;;;;11.13;6.60;;;26.90;77.00;;;;;;7381581;19;20007;-80
2023/09/09 00:59:18;;;;;;;10.85;6.43;;;26.90;77.00;;;;;;7402337;19;20010;-80
2023/09/09 01:01:47;;;;;;;11.15;6.60;;;26.90;77.20;;;;;;7385523;19;20002;-80
2023/09/09 01:04:16;;;;;;;15.75;7.35;;;26.90;77.40;;;;;;7389812;19;20034;-79
2023/09/09 01:06:47;;;;;;;10.68;6.53;;;26.90;77.60;;;;;;7386868;19;20035;-80
2023/09/09 01:09:16;;;;;;;;;;;26.90;77.70;;;;;;7382488;19;20011;-80
2023/09/09 01:11:46;;;;;;;17.98;6.70;;;27.00;77.50;;;;;;7381874;19;19929;-79
2023/09/09 01:14:24;;;;;;;14.52;6.10;;;27.00;77.00;;;;;;7406144;19;20393;-79
2023/09/09 01:16:55;;;;;;;15.45;6.65;;;26.90;76.70;;;;;;7384569;19;20006;-80
2023/09/09 01:19:31;;;;;;;18.10;6.68;;;26.90;76.70;;;;;;7382907;19;20014;-79
2023/09/09 01:22:06;;;;;;;18.67;6.28;;;26.90;76.70;;;;;;7382648;19;20241;-80
2023/09/09 01:24:38;;;;;;;12.38;6.57;;;26.90;76.90;;;;;;7382768;19;20015;-80
2023/09/09 01:27:09;;;;;;;15.20;6.53;;;26.80;76.60;;;;;;7393271;19;20013;-79
2023/09/09 01:29:40;;;;;;;23.40;6.40;;;26.80;76.70;;;;;;7400071;19;20004;-79
2023/09/09 01:32:09;;;;;;;13.85;6.50;;;26.70;76.90;;;;;;7420233;19;20016;-79
2023/09/09 01:34:37;;;;;;;11.68;6.45;;;26.70;76.90;;;;;;7399708;19;20002;-79
2023/09/09 01:37:07;;;;;;;14.68;7.05;;;26.60;77.00;;;;;;7383324;19;20003;-79
2023/09/09 01:39:38;;;;;;;16.27;6.57;;;26.60;77.40;;;;;;7381132;19;20457;-79
2023/09/09 01:42:08;;;;;;;18.10;6.45;;;26.60;77.50;;;;;;7379871;19;20059;-79
2023/09/09 01:44:36;;;;;;;13.73;6.50;;;26.60;77.50;;;;;;7381013;19;20024;-79
2023/09/09 01:47:06;;;;;;;13.05;6.15;;;26.50;77.60;;;;;;7400882;19;20051;-79
2023/09/09 01:49:34;;;;;;;12.02;6.60;;;26.50;77.80;;;;;;7381651;19;20297;-79
2023/09/09 01:52:06;;;;;;;13.40;6.50;;;26.50;77.70;;;;;;7380325;19;20010;-79
2023/09/09 01:54:39;;;;;;;9.52;6.28;;;26.50;77.80;;;;;;7382573;19;20011;-79
2023/09/09 01:57:08;;;;;;;13.00;6.50;;;26.50;77.70;;;;;;7383239;19;20006;-80
2023/09/09 01:59:37;;;;;;;16.73;6.95;;;26.50;77.60;;;;;;7381799;19;20217;-79
2023/09/09 02:02:06;;;;;;;15.25;6.32;;;26.50;77.60;;;;;;7402154;19;20031;-79
2023/09/09 02:04:35;;;;;;;13.23;6.32;;;26.50;77.50;;;;;;7379373;19;20019;-79
2023/09/09 02:07:06;;;;;;;14.48;6.50;;;26.50;77.70;;;;;;7379884;19;20027;-79
2023/09/09 02:09:38;;;;;;;16.90;6.60;;;26.40;77.70;;;;;;7379303;19;20002;-80
2023/09/09 02:12:08;;;;;;;16.27;6.13;;;26.50;77.80;;;;;;7380374;19;20007;-79
2023/09/09 02:14:40;;;;;;;13.60;6.88;;;26.50;77.80;;;;;;7379381;19;20043;-81
2023/09/09 02:17:10;;;;;;;10.35;6.53;;;26.50;78.00;;;;;;7403223;19;20018;-80
2023/09/09 02:19:40;;;;;;;9.05;6.63;;;26.50;78.00;;;;;;7379579;19;19999;-80
2023/09/09 02:22:09;;;;;;;13.87;6.40;;;26.50;78.30;;;;;;7378889;19;20007;-80
2023/09/09 02:24:40;;;;;;;15.80;6.95;;;26.50;78.30;;;;;;7379232;19;20264;-80
2023/09/09 02:27:09;;;;;;;13.95;5.88;;;26.40;78.30;;;;;;7380478;19;20007;-80
2023/09/09 02:29:39;;;;;;;14.73;6.65;;;26.40;78.30;;;;;;7381633;19;20007;-79
2023/09/09 02:32:08;;;;;;;18.70;6.63;;;26.40;79.10;;;;;;7402826;19;20062;-80
2023/09/09 02:34:40;;;;;;;15.95;6.80;;;26.40;78.10;;;;;;7381653;19;20031;-80
2023/09/09 02:37:17;;;;;;;13.30;6.88;;;26.30;78.00;;;;;;7388946;19;20003;-80
2023/09/09 02:39:49;;;;;;;12.70;7.45;;;26.30;78.10;;;;;;7389451;19;20007;-80
2023/09/09 02:42:20;;;;;;;9.75;6.88;;;26.30;78.10;;;;;;7393441;19;20007;-80
2023/09/09 02:44:49;;;;;;;14.38;7.30;;;26.30;78.10;;;;;;7394200;19;20011;-81
2023/09/09 02:47:20;;;;;;;15.43;7.47;;;26.30;78.10;;;;;;7397800;19;20035;-80
2023/09/09 02:49:50;;;;;;;11.15;6.60;;;26.30;78.10;;;;;;7409699;19;20081;-80
2023/09/09 02:52:18;;;;;;;16.92;7.15;;;26.30;78.20;;;;;;7386038;19;20007;-80
2023/09/09 02:54:53;;;;;;;12.13;6.55;;;26.20;78.10;;;;;;7386744;19;20007;-80
2023/09/09 02:57:21;;;;;;;11.95;7.13;;;26.30;78.20;;;;;;7386070;19;20074;-80
2023/09/09 02:59:50;;;;;;;13.95;7.25;;;26.30;78.30;;;;;;7387543;19;20014;-80
2023/09/09 03:02:19;;;;;;;12.13;6.85;;;26.20;78.40;;;;;;7387677;19;20037;-81
2023/09/09 03:04:48;;;;;;;17.35;6.60;;;26.10;79.40;;;;;;7409079;19;20007;-80
2023/09/09 03:07:17;;;;;;;9.60;6.57;;;25.90;78.90;;;;;;7386455;19;20007;-80
2023/09/09 03:09:49;;;;;;;11.85;6.75;;;25.90;79.30;;;;;;7386152;19;20040;-80
2023/09/09 03:12:27;;;;;;;16.30;6.25;;;25.90;79.50;;;;;;7395465;19;20026;-81
2023/09/09 03:14:59;;;;;;;11.20;6.55;;;25.90;79.50;;;;;;7401857;19;20023;-80
2023/09/09 03:17:32;;;;;;;12.30;6.35;;;25.90;79.20;;;;;;7399988;19;20003;-81
2023/09/09 03:20:02;;;;;;;12.57;7.50;;;25.90;79.20;;;;;;7422333;19;20011;-79
2023/09/09 03:22:32;;;;;;;15.65;6.13;;;25.90;79.30;;;;;;7389864;19;20014;-80
2023/09/09 03:25:03;;;;;;;14.80;6.03;;;25.90;79.40;;;;;;7384906;19;20083;-80
2023/09/09 03:27:37;;;;;;;12.10;6.30;;;25.90;79.40;;;;;;7391205;19;20018;-79
2023/09/09 03:30:10;;;;;;;10.10;6.43;;;25.90;79.50;;;;;;7389873;19;20027;-79
2023/09/09 03:32:44;;;;;;;13.27;6.97;;;25.90;79.60;;;;;;7386830;19;20038;-80
2023/09/09 03:35:13;;;;;;;17.05;6.57;;;25.80;79.70;;;;;;7406360;19;20009;-80
2023/09/09 03:37:42;;;;;;;17.05;7.07;;;25.80;79.80;;;;;;7384349;19;20004;-80
2023/09/09 03:40:12;;;;;;;15.50;6.60;;;25.80;79.70;;;;;;7384422;19;20010;-79
2023/09/09 03:42:44;;;;;;;16.63;6.73;;;25.80;79.50;;;;;;7385213;19;20019;-80
2023/09/09 03:45:13;;;;;;;11.32;7.18;;;25.80;79.50;;;;;;7383135;19;20235;-79
2023/09/09 03:47:41;;;;;;;12.90;7.50;;;25.80;79.50;;;;;;7382494;19;20031;-79
2023/09/09 03:50:13;;;;;;;12.60;7.10;;;25.80;79.70;;;;;;7403819;19;20018;-79
2023/09/09 03:52:42;;;;;;;16.05;7.15;;;25.80;79.80;;;;;;7382755;19;20019;-79
2023/09/09 03:55:11;;;;;;;13.10;6.95;;;25.80;79.70;;;;;;7383834;19;20241;-80
2023/09/09 03:57:42;;;;;;;12.13;6.38;;;25.80;79.70;;;;;;7382400;19;20010;-79
2023/09/09 04:00:15;;;;;;;12.15;6.72;;;25.80;79.70;;;;;;7382146;19;20013;-79
2023/09/09 04:02:44;;;;;;;17.35;7.28;;;25.70;79.60;;;;;;7381982;19;20430;-79
2023/09/09 04:05:15;;;;;;;14.77;7.20;;;25.70;79.70;;;;;;7411536;19;20011;-77
2023/09/09 04:07:44;;;;;;;14.23;7.15;;;25.70;79.80;;;;;;7400236;19;20002;-80
2023/09/09 04:10:14;;;;;;;14.02;6.78;;;25.70;79.90;;;;;;7392534;19;20019;-79
2023/09/09 04:12:48;;;;;;;16.17;7.32;;;25.70;80.10;;;;;;7384081;19;20019;-80
2023/09/09 04:15:23;;;;;;;14.07;8.25;;;25.70;80.20;;;;;;7387543;19;20015;-79
2023/09/09 04:17:54;;;;;;;14.57;7.10;;;25.70;80.20;;;;;;7383809;19;20007;-79
2023/09/09 04:20:23;;;;;;;14.40;6.93;;;25.70;80.00;;;;;;7381960;19;20010;-79
2023/09/09 04:22:53;;;;;;;16.00;7.60;;;25.70;79.90;;;;;;7405302;19;20007;-80
2023/09/09 04:25:22;;;;;;;12.48;7.45;;;25.70;80.10;;;;;;7383706;19;20007;-79
2023/09/09 04:27:56;;;;;;;14.05;6.93;;;25.70;80.00;;;;;;7383294;19;20050;-80
2023/09/09 04:30:25;;;;;;;15.40;7.32;;;25.70;80.20;;;;;;7382622;19;20006;-81
2023/09/09 04:32:54;;;;;;;16.98;7.07;;;25.60;79.90;;;;;;7381615;19;20010;-79
2023/09/09 04:35:23;;;;;;;12.00;6.78;;;25.60;79.90;;;;;;7383732;19;20011;-80
2023/09/09 04:37:52;;;;;;;16.02;7.35;;;25.50;80.00;;;;;;7404069;19;20104;-80
2023/09/09 04:40:20;;;;;;;12.52;6.60;;;25.50;80.20;;;;;;7382976;19;20256;-80
2023/09/09 04:42:49;;;;;;;19.00;7.30;;;25.50;80.20;;;;;;7383468;19;20009;-80
2023/09/09 04:45:21;;;;;;;18.65;6.95;;;25.40;80.30;;;;;;7384827;19;20003;-79
2023/09/09 04:47:49;;;;;;;13.00;7.05;;;25.40;80.30;;;;;;7384333;19;20007;-79
2023/09/09 04:50:20;;;;;;;25.08;7.78;;;25.40;80.50;;;;;;7387095;19;20002;-80
2023/09/09 04:52:50;;;;;;;13.50;7.45;;;25.40;80.40;;;;;;7403397;19;20006;-79
2023/09/09 04:55:19;;;;;;;14.55;6.88;;;25.40;80.40;;;;;;7382692;19;20007;-79
2023/09/09 04:57:50;;;;;;;16.80;7.22;;;25.40;80.50;;;;;;7383870;19;20006;-81
2023/09/09 05:00:21;;;;;;;14.77;7.25;;;25.40;80.50;;;;;;7392821;19;20010;-81
2023/09/09 05:02:52;;;;;;;12.85;6.50;;;25.40;80.60;;;;;;7405945;19;20054;-79
2023/09/09 05:05:24;;;;;;;13.15;6.70;;;25.40;80.50;;;;;;7407289;19;20014;-82
2023/09/09 05:07:52;;;;;;;14.90;6.82;;;25.40;80.50;;;;;;7425759;19;20003;-79
2023/09/09 05:10:22;;;;;;;11.50;6.80;;;25.30;80.70;;;;;;7382666;19;20014;-80
2023/09/09 05:12:51;;;;;;;19.58;7.32;;;25.30;80.60;;;;;;7381803;19;20014;-79
2023/09/09 05:15:27;;;;;;;13.00;7.13;;;25.30;80.60;;;;;;7381055;19;20003;-79
2023/09/09 05:17:56;;;;;;;14.32;6.90;;;25.20;80.60;;;;;;7381121;19;20007;-79
2023/09/09 05:20:28;;;;;;;17.17;7.03;;;25.30;80.70;;;;;;7382080;19;20015;-79
2023/09/09 05:22:57;;;;;;;21.42;7.47;;;25.30;80.80;;;;;;7401574;19;20231;-79
2023/09/09 05:25:25;;;;;;;14.48;7.50;;;25.30;80.80;;;;;;7380694;19;20003;-80
2023/09/09 05:27:54;;;;;;;10.95;6.88;;;25.30;80.70;;;;;;7381190;19;20003;-80
2023/09/09 05:30:26;;;;;;;16.20;7.28;;;25.30;80.60;;;;;;7382910;19;20010;-79
2023/09/09 05:32:55;;;;;;;12.35;6.85;;;25.30;80.80;;;;;;7383271;19;20007;-80
2023/09/09 05:35:24;;;;;;;15.25;6.90;;;25.30;80.70;;;;;;7380033;19;20394;-80
2023/09/09 05:37:55;;;;;;;14.10;7.65;;;25.30;80.80;;;;;;7400180;19;19999;-80
2023/09/09 05:40:24;;;;;;;17.80;7.40;;;25.30;80.90;;;;;;7382306;19;20010;-80
2023/09/09 05:42:53;;;;;;;19.90;7.43;;;25.20;81.00;;;;;;7383638;19;20030;-80
2023/09/09 05:45:22;;;;;;;18.98;7.38;;;25.20;81.00;;;;;;7382416;19;20031;-81
2023/09/09 05:47:56;;;;;;;22.92;7.63;;;25.20;81.00;;;;;;7379837;19;20291;-80
2023/09/09 05:50:25;;;;;;;14.88;7.30;;;25.20;80.80;;;;;;7378904;19;20350;-81
2023/09/09 05:52:55;;;;;;;22.88;8.00;;;25.20;80.80;;;;;;7402419;19;20011;-81
2023/09/09 05:55:24;;;;;;;12.55;7.53;;;25.20;80.90;;;;;;7382233;19;20014;-80
2023/09/09 05:57:52;;;;;;;17.77;7.88;;;25.20;81.20;;;;;;7380718;19;20006;-80
2023/09/09 06:00:22;;;;;;;15.07;7.40;;;25.20;81.60;;;;;;7379989;19;20002;-81
2023/09/09 06:02:53;;;;;;;16.27;7.35;;;25.10;81.90;;;;;;7383718;19;20015;-80
2023/09/09 06:05:22;;;;;;;13.85;7.25;;;25.10;81.80;;;;;;7380446;19;19999;-81
2023/09/09 06:07:52;;;;;;;11.73;6.20;;;25.20;81.80;;;;;;7399665;19;20011;-80
2023/09/09 06:10:20;;;;;;;17.90;7.40;;;25.20;81.60;;;;;;7380964;19;20019;-80
2023/09/09 06:12:49;;;;;;;16.08;6.78;;;25.20;81.70;;;;;;7386208;19;20090;-79
2023/09/09 06:15:18;;;;;;;12.57;7.18;;;25.30;81.90;;;;;;7387265;19;20011;-79
2023/09/09 06:17:47;;;;;;;12.40;6.90;;;25.30;81.90;;;;;;7386772;19;20050;-80
2023/09/09 06:20:18;;;;;;;14.50;6.80;;;25.30;81.90;;;;;;7406290;19;20003;-79
2023/09/09 06:22:47;;;;;;;18.15;6.78;;;25.30;81.90;;;;;;7387418;19;20006;-80
2023/09/09 06:25:16;;;;;;;24.10;13.10;;;25.40;82.00;;;;;;7388240;19;20003;-79
2023/09/09 06:27:45;;;;;;;22.08;13.32;;;25.50;82.00;;;;;;7392239;19;20011;-80
2023/09/09 06:30:14;;;;;;;20.02;8.60;;;25.50;81.90;;;;;;7387748;19;20009;-80
2023/09/09 06:32:43;;;;;;;19.80;7.65;;;25.50;81.80;;;;;;7388283;19;19999;-80
2023/09/09 06:35:12;;;;;;;15.00;7.80;;;25.60;81.80;;;;;;7410654;19;20011;-79
2023/09/09 06:37:43;;;;;;;12.13;6.85;;;25.70;81.80;;;;;;7389423;19;20007;-80
2023/09/09 06:40:15;;;;;;;11.02;6.88;;;25.70;81.80;;;;;;7393848;19;20014;-81
2023/09/09 06:42:44;;;;;;;14.75;7.97;;;25.70;81.90;;;;;;7393116;19;20065;-80
2023/09/09 06:45:15;;;;;;;13.43;7.07;;;25.80;82.00;;;;;;7389906;19;20003;-80
2023/09/09 06:47:49;;;;;;;19.48;7.88;;;25.80;82.10;;;;;;7396618;19;20009;-81
2023/09/09 06:50:18;;;;;;;17.38;6.72;;;25.80;82.10;;;;;;7401354;19;20002;-80
2023/09/09 06:52:51;;;;;;;17.92;7.45;;;25.90;82.90;;;;;;7409424;19;20006;-80
2023/09/09 06:55:32;;;;;;;16.58;7.15;;;26.00;82.00;;;;;;7389359;19;20014;-80
2023/09/09 06:58:01;;;;;;;16.90;8.25;;;26.00;81.90;;;;;;7391466;19;20010;-80
2023/09/09 07:00:30;;;;;;;15.45;6.90;;;26.10;81.90;;;;;;7387661;19;19999;-81
2023/09/09 07:02:59;;;;;;;16.50;7.80;;;26.20;81.90;;;;;;7385118;19;20009;-80
2023/09/09 07:05:31;;;;;;;19.08;7.70;;;26.20;81.80;;;;;;7384758;19;20031;-79
2023/09/09 07:08:03;;;;;;;12.60;7.65;;;26.20;81.80;;;;;;7404273;19;20366;-79
2023/09/09 07:10:34;;;;;;;16.50;6.45;;;26.30;82.10;;;;;;7384746;19;20017;-80
2023/09/09 07:13:03;;;;;;;;;;;26.40;82.20;;;;;;7385272;19;20011;-81
2023/09/09 07:15:35;;;;;;;16.58;7.88;;;26.50;82.30;;;;;;7384173;19;19906;-80
2023/09/09 07:18:04;;;;;;;13.95;6.82;;;26.50;82.20;;;;;;7383789;19;19999;-80
2023/09/09 07:20:33;;;;;;;15.45;6.72;;;26.50;82.20;;;;;;7383922;19;20047;-80
2023/09/09 07:23:06;;;;;;;20.33;7.88;;;26.60;82.30;;;;;;7403336;19;20367;-80
2023/09/09 07:25:38;;;;;;;21.98;7.25;;;26.60;82.30;;;;;;7385312;19;20007;-80
2023/09/09 07:28:09;;;;;;;15.75;8.00;;;26.70;82.30;;;;;;7385101;19;20070;-80
2023/09/09 07:30:38;;;;;;;17.55;7.13;;;26.70;82.30;;;;;;7386626;19;20007;-80
2023/09/09 07:33:07;;;;;;;25.70;7.28;;;26.80;83.30;;;;;;7384349;19;20390;-80
2023/09/09 07:35:38;;;;;;;23.30;7.20;;;26.90;82.60;;;;;;7382483;19;20007;-80
2023/09/09 07:38:09;;;;;;;21.02;7.95;;;26.90;81.90;;;;;;7405506;19;20009;-80
2023/09/09 07:40:38;;;;;;;22.25;7.15;;;27.00;81.40;;;;;;7383030;19;20011;-81
2023/09/09 07:43:07;;;;;;;30.10;7.38;;;27.10;80.80;;;;;;7383844;19;20007;-80
2023/09/09 07:45:37;;;;;;;17.65;6.57;;;27.20;80.40;;;;;;7384845;19;20007;-80
2023/09/09 07:48:07;;;;;;;20.15;6.65;;;27.20;80.10;;;;;;7383030;19;20070;-79
2023/09/09 07:50:36;;;;;;;31.17;6.95;;;27.30;79.90;;;;;;7384052;19;20015;-79
2023/09/09 07:53:05;;;;;;;19.85;6.60;;;27.40;79.90;;;;;;7404694;19;20055;-80
2023/09/09 07:55:38;;;;;;;20.00;7.00;;;27.40;79.60;;;;;;7386468;19;19999;-79
2023/09/09 07:58:07;;;;;;;22.63;6.85;;;27.50;79.50;;;;;;7384671;19;20051;-79
2023/09/09 08:00:36;;;;;;;21.67;6.50;;;27.50;79.20;;;;;;7383875;19;20043;-80
2023/09/09 08:03:06;;;;;;;20.95;6.93;;;27.50;79.00;;;;;;7381887;19;20014;-79
2023/09/09 08:05:35;;;;;;;19.92;7.38;;;27.60;78.90;;;;;;7381893;19;20009;-80
2023/09/09 08:08:04;;;;;;;22.77;6.45;;;27.60;78.60;;;;;;7403354;19;20006;-80
2023/09/09 08:10:38;;;;;;;30.65;6.63;;;27.70;78.20;;;;;;7382695;19;20002;-80
2023/09/09 08:13:12;;;;;;;18.20;5.90;;;27.70;77.70;;;;;;7382336;19;20002;-80
2023/09/09 08:15:41;;;;;;;19.35;5.90;;;27.80;77.40;;;;;;7383067;19;20010;-81
2023/09/09 08:18:14;;;;;;;31.65;6.28;;;27.80;76.70;;;;;;7382301;19;20021;-80
2023/09/09 08:20:42;;;;;;;21.25;6.90;;;27.80;76.10;;;;;;7382210;19;20003;-80
2023/09/09 08:23:12;;;;;;;24.25;6.22;;;27.80;75.90;;;;;;7405076;19;20223;-80
2023/09/09 08:25:43;;;;;;;16.70;6.15;;;27.90;75.80;;;;;;7383097;19;20010;-80
2023/09/09 08:28:12;;;;;;;21.40;6.55;;;27.90;75.60;;;;;;7382875;19;20014;-80
2023/09/09 08:30:45;;;;;;;17.08;6.65;;;27.90;76.30;;;;;;7383513;19;20010;-80
2023/09/09 08:33:17;;;;;;;24.63;6.40;;;27.90;75.30;;;;;;7380568;19;19999;-80
2023/09/09 08:35:48;;;;;;;19.02;6.25;;;28.00;75.40;;;;;;7383095;19;20030;-80
2023/09/09 08:38:21;;;;;;;;;;;28.00;75.20;;;;;;7406801;19;20003;-80
2023/09/09 08:40:58;;;;;;;31.25;7.40;;;28.00;75.20;;;;;;7401148;19;19914;-81
2023/09/09 08:43:33;;;;;;;19.10;6.60;;;28.10;75.40;;;;;;7401895;19;20021;-80
2023/09/09 08:46:10;;;;;;;18.10;5.97;;;28.10;75.40;;;;;;7402884;19;20006;-81
2023/09/09 08:48:52;;;;;;;21.33;6.63;;;28.10;75.50;;;;;;7393856;19;20002;-80
2023/09/09 08:51:27;;;;;;;23.25;6.57;;;28.20;75.50;;;;;;7384268;19;20009;-80
2023/09/09 08:54:08;;;;;;;25.20;5.72;;;28.20;75.40;;;;;;7382749;19;20042;-80
2023/09/09 08:56:51;;;;;;;;;;;28.20;75.20;;;;;;7383374;19;20019;-81
2023/09/09 08:59:29;;;;;;;14.57;6.38;;;28.30;75.00;;;;;;7381283;19;19915;-80
2023/09/09 09:02:08;;;;;;;17.95;6.13;;;28.20;74.80;;;;;;7402459;19;20035;-80
2023/09/09 09:04:44;;;;;;;24.35;6.22;;;28.30;74.80;;;;;;7381893;19;20003;-79
2023/09/09 09:07:15;;;;;;;15.23;6.45;;;28.30;74.60;;;;;;7384604;19;20010;-80
2023/09/09 09:09:43;;;;;;;12.32;5.93;;;28.30;74.50;;;;;;7383950;19;20007;-80
2023/09/09 09:12:17;;;;;;;20.80;5.88;;;28.40;74.30;;;;;;7384449;19;20350;-80
2023/09/09 09:14:49;;;;;;;12.48;6.38;;;28.40;73.90;;;;;;7383992;19;20036;-80
2023/09/09 09:17:20;;;;;;;12.82;6.15;;;28.40;73.80;;;;;;7403167;19;20003;-80
2023/09/09 09:19:49;;;;;;;12.38;6.28;;;28.40;73.60;;;;;;7403078;19;20030;-80
2023/09/09 09:22:19;;;;;;;17.48;6.85;;;28.40;73.50;;;;;;7382707;19;20027;-80
2023/09/09 09:24:57;;;;;;;19.45;6.53;;;28.50;73.30;;;;;;7388329;19;20010;-82
2023/09/09 09:27:33;;;;;;;19.77;6.80;;;28.50;73.50;;;;;;7388587;19;20039;-79
2023/09/09 09:30:02;;;;;;;26.35;7.00;;;28.50;73.30;;;;;;7382284;19;20019;-80
2023/09/09 09:32:43;;;;;;;20.75;7.00;;;28.50;73.20;;;;;;7382521;19;20031;-80
2023/09/09 09:35:27;;;;;;;15.23;6.65;;;28.60;74.30;;;;;;7402168;19;20028;-80
2023/09/09 09:37:58;;;;;;;19.90;6.47;;;28.60;73.30;;;;;;7381113;19;20009;-80
2023/09/09 09:40:28;;;;;;;19.02;7.03;;;28.60;73.50;;;;;;7382587;19;20035;-80
2023/09/09 09:43:00;;;;;;;21.88;6.65;;;28.60;73.40;;;;;;7383588;19;20011;-82
2023/09/09 09:45:30;;;;;;;29.25;6.32;;;28.70;73.10;;;;;;7388055;19;20089;-80
2023/09/09 09:48:03;;;;;;;17.15;6.32;;;28.70;73.00;;;;;;7392212;19;20412;-80
2023/09/09 09:50:35;;;;;;;18.63;6.57;;;28.70;72.70;;;;;;7387840;19;20006;-80
2023/09/09 09:53:06;;;;;;;28.10;6.47;;;28.80;72.50;;;;;;7409636;19;20003;-80
2023/09/09 09:55:38;;;;;;;14.20;6.70;;;28.80;72.40;;;;;;7387892;19;20003;-80
2023/09/09 09:58:10;;;;;;;14.77;6.25;;;28.80;72.30;;;;;;7392666;19;20243;-80
2023/09/09 10:00:41;;;;;;;19.63;6.68;;;28.90;72.20;;;;;;7396226;19;20023;-81
2023/09/09 10:03:12;;;;;;;15.77;6.80;;;28.90;71.90;;;;;;7391365;19;20015;-81
2023/09/09 10:05:47;;;;;;;18.83;6.85;;;28.90;71.80;;;;;;7389413;19;20055;-80
2023/09/09 10:08:25;;;;;;;27.05;6.28;;;28.90;71.80;;;;;;7412276;19;20010;-80
2023/09/09 10:11:00;;;;;;;15.82;6.68;;;29.00;71.90;;;;;;7392157;19;20007;-80
2023/09/09 10:13:38;;;;;;;17.60;5.85;;;29.00;71.90;;;;;;7392557;19;20397;-80
2023/09/09 10:16:09;;;;;;;15.82;6.30;;;29.00;71.40;;;;;;7388980;19;20006;-81
2023/09/09 10:18:39;;;;;;;14.82;6.05;;;29.10;71.40;;;;;;7388986;19;20219;-81
2023/09/09 10:21:10;;;;;;;14.07;6.53;;;29.10;71.50;;;;;;7387769;19;20014;-80
2023/09/09 10:23:39;;;;;;;18.37;7.03;;;29.10;71.20;;;;;;7389593;19;19999;-80
2023/09/09 10:26:11;;;;;;;16.10;6.88;;;29.20;71.20;;;;;;7411589;19;20027;-81
2023/09/09 10:28:44;;;;;;;14.38;6.00;;;29.20;71.00;;;;;;7390486;19;20003;-80
2023/09/09 10:31:17;;;;;;;14.88;6.32;;;29.30;71.00;;;;;;7409351;19;20019;-81
2023/09/09 10:33:47;;;;;;;15.45;6.35;;;29.30;70.70;;;;;;7412725;19;20071;-80
2023/09/09 10:36:17;;;;;;;15.63;6.70;;;29.40;70.50;;;;;;7410672;19;20014;-79
2023/09/09 10:38:45;;;;;;;15.27;6.18;;;29.40;70.10;;;;;;7398037;19;20006;-79
2023/09/09 10:41:15;;;;;;;13.45;5.82;;;29.50;69.70;;;;;;7408063;19;20011;-81
2023/09/09 10:43:46;;;;;;;12.27;6.15;;;29.50;69.70;;;;;;7392765;19;20011;-81
2023/09/09 10:46:16;;;;;;;11.57;6.15;;;29.50;69.30;;;;;;7394956;19;20042;-80
2023/09/09 10:48:46;;;;;;;14.55;6.05;;;29.60;68.90;;;;;;7389547;19;20007;-80
2023/09/09 10:51:18;;;;;;;12.13;6.07;;;29.70;68.80;;;;;;7385311;19;20031;-80
2023/09/09 10:53:47;;;;;;;13.00;6.00;;;29.70;68.70;;;;;;7384629;19;20346;-80
2023/09/09 10:56:25;;;;;;;12.90;5.72;;;29.80;68.30;;;;;;7405622;19;20387;-80
2023/09/09 10:58:57;;;;;;;10.23;5.75;;;29.80;68.20;;;;;;7390494;19;20024;-80
2023/09/09 11:01:28;;;;;;;16.15;7.32;;;29.80;67.70;;;;;;7389074;19;20235;-80
2023/09/09 11:03:57;;;;;;;18.50;6.35;;;29.90;67.40;;;;;;7386199;19;20378;-80
2023/09/09 11:06:29;;;;;;;12.80;6.45;;;29.90;67.20;;;;;;7386575;19;20002;-80
2023/09/09 11:09:01;;;;;;;15.52;5.50;;;30.00;67.20;;;;;;7385802;19;20003;-80
2023/09/09 11:11:35;;;;;;;12.98;6.18;;;30.10;66.30;;;;;;7385962;19;20362;-80
2023/09/09 11:14:08;;;;;;;15.95;5.97;;;30.10;65.10;;;;;;7409328;19;20067;-80
2023/09/09 11:16:38;;;;;;;12.38;6.05;;;30.10;65.00;;;;;;7389200;19;20011;-80
2023/09/09 11:19:08;;;;;;;12.88;6.10;;;30.20;65.40;;;;;;7386885;19;20007;-80
2023/09/09 11:21:40;;;;;;;14.02;6.35;;;30.30;65.50;;;;;;7386471;19;20006;-79
2023/09/09 11:24:10;;;;;;;9.35;5.80;;;30.30;65.50;;;;;;7385580;19;20010;-79
2023/09/09 11:26:41;;;;;;;13.02;6.20;;;30.40;65.50;;;;;;7385384;19;20121;-80
2023/09/09 11:29:13;;;;;;;15.65;5.82;;;30.50;65.20;;;;;;7414924;19;20003;-82
2023/09/09 11:31:48;;;;;;;13.65;6.43;;;30.50;64.60;;;;;;7397986;19;20016;-79
2023/09/09 11:34:17;;;;;;;16.98;6.65;;;30.60;63.90;;;;;;7387115;19;20006;-80
2023/09/09 11:36:49;;;;;;;13.15;6.15;;;30.60;63.10;;;;;;7388552;19;20374;-80
2023/09/09 11:39:18;;;;;;;9.90;5.45;;;30.70;62.80;;;;;;7389087;19;20019;-81
2023/09/09 11:41:49;;;;;;;11.18;5.78;;;30.80;61.80;;;;;;7389620;19;20209;-80
2023/09/09 11:44:22;;;;;;;15.07;5.53;;;30.80;61.90;;;;;;7394444;19;20030;-81
2023/09/09 11:46:54;;;;;;;8.13;5.55;;;30.90;62.50;;;;;;7407845;19;20212;-80
2023/09/09 11:49:23;;;;;;;12.88;5.88;;;31.00;62.40;;;;;;7384548;19;20017;-81
2023/09/09 11:51:52;;;;;;;9.35;6.03;;;31.00;61.90;;;;;;7383760;19;20015;-81
2023/09/09 11:54:24;;;;;;;8.13;5.45;;;31.10;61.90;;;;;;7383967;19;20006;-80
2023/09/09 11:57:05;;;;;;;12.65;5.80;;;31.20;61.60;;;;;;7382725;19;20070;-81
2023/09/09 11:59:46;;;;;;;8.35;5.38;;;31.20;61.20;;;;;;7384194;19;20014;-80
2023/09/09 12:02:22;;;;;;;10.87;5.50;;;31.30;60.30;;;;;;7403473;19;20019;-80
2023/09/09 12:04:58;;;;;;;9.15;6.07;;;31.30;60.20;;;;;;7382832;19;20255;-79
2023/09/09 12:07:30;;;;;;;8.40;5.47;;;31.40;59.80;;;;;;7381184;19;20018;-80
2023/09/09 12:10:00;;;;;;;9.10;5.65;;;31.40;59.30;;;;;;7381602;19;20038;-80
2023/09/09 12:12:33;;;;;;;11.20;5.57;;;31.50;59.40;;;;;;7383734;19;20010;-80
2023/09/09 12:15:05;;;;;;;10.00;5.30;;;31.60;59.30;;;;;;7390506;19;20043;-78
2023/09/09 12:17:39;;;;;;;7.82;5.25;;;31.60;59.20;;;;;;7406072;19;20010;-80
2023/09/09 12:20:12;;;;;;;10.38;5.00;;;31.70;59.10;;;;;;7422554;19;20010;-78
2023/09/09 12:22:51;;;;;;;11.27;5.63;;;31.70;59.10;;;;;;7398659;19;20006;-79
2023/09/09 12:25:35;;;;;;;8.05;5.38;;;31.80;58.80;;;;;;7391928;19;20013;-80
2023/09/09 12:28:04;;;;;;;9.82;5.38;;;31.90;58.30;;;;;;7384350;19;20007;-81
2023/09/09 12:30:43;;;;;;;12.63;5.50;;;32.00;58.20;;;;;;7387992;19;20031;-81
2023/09/09 12:33:17;;;;;;;7.15;5.10;;;32.10;58.30;;;;;;7388121;19;20010;-81
2023/09/09 12:38:41;;;;;;;13.23;5.28;;;32.20;58.10;;;;;;7382268;19;20031;-82
2023/09/09 12:41:11;;;;;;;6.53;5.00;;;32.30;57.50;;;;;;7404084;19;20007;-81
2023/09/09 12:43:56;;;;;;;9.07;4.35;;;32.40;57.20;;;;;;7381964;19;20009;-80
2023/09/09 12:46:34;;;;;;;12.13;5.05;;;32.50;56.70;;;;;;7383897;19;20204;-81
2023/09/09 12:49:07;;;;;;;6.82;4.82;;;32.50;56.40;;;;;;7383243;19;20014;-81
2023/09/09 12:51:39;;;;;;;9.63;4.60;;;32.70;56.60;;;;;;7383479;19;20007;-81
2023/09/09 12:54:27;;;;;;;;;;;;;;;;;;;;;
2023/09/09 12:57:08;;;;;;;11.05;4.88;;;32.70;55.70;;;;;;7383024;19;20018;-79
2023/09/09 12:59:41;;;;;;;10.45;5.05;;;32.80;55.40;;;;;;7381833;19;20043;-80
2023/09/09 13:02:23;;;;;;;;;;;;;;;;;;;;;
2023/09/09 13:05:01;;;;;;;8.60;4.78;;;33.00;55.10;;;;;;7381497;19;20996;-79